createdAt,value
2022-10-14T00:00:16.971Z,7.69
2022-10-14T00:01:24.695Z,7.69
2022-10-14T00:02:27.745Z,7.69
2022-10-14T00:03:32.426Z,7.70
2022-10-14T00:04:35.326Z,7.71
2022-10-14T00:05:42.492Z,7.74
2022-10-14T00:06:46.242Z,7.75
2022-10-14T00:07:51.587Z,7.76
2022-10-14T00:08:54.937Z,7.76
2022-10-14T00:09:58.944Z,7.75
2022-10-14T00:11:05.837Z,7.73
2022-10-14T00:12:09.857Z,7.70
2022-10-14T00:13:12.796Z,7.68
2022-10-14T00:14:19.162Z,7.66
2022-10-14T00:15:25.615Z,7.60
2022-10-14T00:16:32.495Z,7.56
2022-10-14T00:17:35.918Z,7.54
2022-10-14T00:18:39.983Z,7.53
2022-10-14T00:19:43.446Z,7.52
2022-10-14T00:20:55.939Z,7.49
2022-10-14T00:21:58.847Z,7.48
2022-10-14T00:23:03.117Z,7.47
2022-10-14T00:24:06.760Z,7.47
2022-10-14T00:25:11.057Z,7.47
2022-10-14T00:26:19.774Z,7.46
2022-10-14T00:27:23.935Z,7.46
2022-10-14T00:28:27.273Z,7.46
2022-10-14T00:29:31.370Z,7.49
2022-10-14T00:30:34.711Z,7.52
2022-10-14T00:31:41.817Z,7.54
2022-10-14T00:32:44.774Z,7.53
2022-10-14T00:33:49.104Z,7.55
2022-10-14T00:34:52.057Z,7.54
2022-10-14T00:35:57.335Z,7.54
2022-10-14T00:37:06.281Z,7.53
2022-10-14T00:38:10.517Z,7.52
2022-10-14T00:39:13.467Z,7.51
2022-10-14T00:40:17.506Z,7.50
2022-10-14T00:41:25.306Z,7.49
2022-10-14T00:42:29.347Z,7.46
2022-10-14T00:43:52.414Z,7.45
2022-10-14T00:45:14.897Z,7.43
2022-10-14T00:46:17.915Z,7.41
2022-10-14T00:47:23.608Z,7.41
2022-10-14T00:48:27.090Z,7.39
2022-10-14T00:49:35.098Z,7.38
2022-10-14T00:50:39.746Z,7.36
2022-10-14T00:51:45.951Z,7.36
2022-10-14T00:52:48.940Z,7.37
2022-10-14T00:53:53.098Z,7.37
2022-10-14T00:54:58.874Z,7.37
2022-10-14T00:56:02.885Z,7.36
2022-10-14T00:57:06.422Z,7.35
2022-10-14T00:58:10.906Z,7.33
2022-10-14T00:59:15.549Z,7.31
2022-10-14T01:00:21.249Z,7.31
2022-10-14T01:01:24.287Z,7.29
2022-10-14T01:02:30.935Z,7.31
2022-10-14T01:03:34.328Z,7.29
2022-10-14T01:04:40.596Z,7.29
2022-10-14T01:05:49.511Z,7.29
2022-10-14T01:06:58.923Z,7.29
2022-10-14T01:08:07.600Z,7.30
2022-10-14T01:09:17.112Z,7.30
2022-10-14T01:10:25.519Z,7.32
2022-10-14T01:11:35.616Z,7.32
2022-10-14T01:12:53.176Z,7.30
2022-10-14T01:14:05.127Z,7.31
2022-10-14T01:15:15.064Z,7.30
2022-10-14T01:16:23.204Z,7.29
2022-10-14T01:17:38.595Z,7.28
2022-10-14T01:18:58.468Z,7.30
2022-10-14T01:20:20.454Z,7.31
2022-10-14T01:21:29.066Z,7.34
2022-10-14T01:22:35.981Z,7.34
2022-10-14T01:24:20.249Z,7.36
2022-10-14T01:25:28.946Z,7.35
2022-10-14T01:26:54.767Z,7.39
2022-10-14T01:28:21.122Z,7.39
2022-10-14T01:30:02.519Z,7.42
2022-10-14T01:31:10.687Z,7.42
2022-10-14T01:32:16.738Z,7.43
2022-10-14T01:33:24.198Z,7.46
2022-10-14T01:34:32.403Z,7.48
2022-10-14T01:35:43.885Z,7.51
2022-10-14T01:36:50.981Z,7.54
2022-10-14T01:37:58.007Z,7.56
2022-10-14T01:39:03.356Z,7.58
2022-10-14T01:40:12.694Z,7.60
2022-10-14T01:41:18.652Z,7.61
2022-10-14T01:42:25.514Z,7.62
2022-10-14T01:43:28.936Z,7.62
2022-10-14T01:44:34.236Z,7.63
2022-10-14T01:45:38.078Z,7.65
2022-10-14T01:46:45.216Z,7.67
2022-10-14T01:47:50.017Z,7.68
2022-10-14T01:48:56.191Z,7.71
2022-10-14T01:50:02.475Z,7.72
2022-10-14T01:51:09.157Z,7.75
2022-10-14T01:52:16.096Z,7.76
2022-10-14T01:53:23.086Z,7.78
2022-10-14T01:54:30.779Z,7.80
2022-10-14T01:55:37.246Z,7.81
2022-10-14T01:56:42.258Z,7.82
2022-10-14T01:57:47.532Z,7.83
2022-10-14T01:58:53.306Z,7.84
2022-10-14T01:59:57.915Z,7.86
2022-10-14T02:01:03.358Z,7.89
2022-10-14T02:02:08.937Z,7.90
2022-10-14T02:03:12.535Z,7.91
2022-10-14T02:04:18.373Z,7.91
2022-10-14T02:05:25.879Z,7.91
2022-10-14T02:06:33.827Z,7.94
2022-10-14T02:07:40.237Z,7.94
2022-10-14T02:08:59.883Z,7.95
2022-10-14T02:10:08.103Z,7.97
2022-10-14T02:11:14.648Z,7.96
2022-10-14T02:12:26.687Z,7.97
2022-10-14T02:13:41.579Z,7.97
2022-10-14T02:14:51.338Z,7.96
2022-10-14T02:16:02.437Z,7.93
2022-10-14T02:17:09.856Z,7.90
2022-10-14T02:18:18.168Z,7.88
2022-10-14T02:19:26.936Z,7.86
2022-10-14T02:20:34.066Z,7.81
2022-10-14T02:21:46.404Z,7.77
2022-10-14T02:22:56.095Z,7.72
2022-10-14T02:24:04.536Z,7.63
2022-10-14T02:25:13.654Z,7.55
2022-10-14T02:26:17.173Z,7.49
2022-10-14T02:27:22.079Z,7.46
2022-10-14T02:28:26.754Z,7.42
2022-10-14T02:29:32.356Z,7.36
2022-10-14T02:30:37.824Z,7.31
2022-10-14T02:31:42.735Z,7.27
2022-10-14T02:32:51.295Z,7.25
2022-10-14T02:33:58.105Z,7.22
2022-10-14T02:35:01.837Z,7.18
2022-10-14T02:36:07.675Z,7.14
2022-10-14T02:37:12.514Z,7.11
2022-10-14T02:38:16.809Z,7.09
2022-10-14T02:39:22.906Z,7.09
2022-10-14T02:40:30.499Z,7.08
2022-10-14T02:41:35.589Z,7.10
2022-10-14T02:42:39.665Z,7.12
2022-10-14T02:43:42.529Z,7.14
2022-10-14T02:44:54.525Z,7.18
2022-10-14T02:45:58.217Z,7.21
2022-10-14T02:47:02.748Z,7.22
2022-10-14T02:48:09.076Z,7.24
2022-10-14T02:49:14.608Z,7.26
2022-10-14T02:50:20.120Z,7.27
2022-10-14T02:51:24.142Z,7.30
2022-10-14T02:52:27.126Z,7.32
2022-10-14T02:53:31.334Z,7.34
2022-10-14T02:54:35.158Z,7.38
2022-10-14T02:55:39.706Z,7.40
2022-10-14T02:56:42.865Z,7.40
2022-10-14T02:57:46.866Z,7.43
2022-10-14T02:58:49.973Z,7.44
2022-10-14T02:59:54.317Z,7.45
2022-10-14T03:01:00.410Z,7.46
2022-10-14T03:02:05.358Z,7.48
2022-10-14T03:03:10.327Z,7.50
2022-10-14T03:04:15.796Z,7.51
2022-10-14T03:05:19.758Z,7.52
2022-10-14T03:06:24.058Z,7.54
2022-10-14T03:07:27.143Z,7.56
2022-10-14T03:08:33.406Z,7.59
2022-10-14T03:09:38.886Z,7.62
2022-10-14T03:10:48.524Z,7.66
2022-10-14T03:11:52.198Z,7.70
2022-10-14T03:12:57.985Z,7.71
2022-10-14T03:14:09.546Z,7.73
2022-10-14T03:15:13.935Z,7.74
2022-10-14T03:16:16.926Z,7.76
2022-10-14T03:17:22.906Z,7.78
2022-10-14T03:18:29.449Z,7.79
2022-10-14T03:19:39.645Z,7.79
2022-10-14T03:20:44.727Z,7.79
2022-10-14T03:21:50.355Z,7.80
2022-10-14T03:22:55.917Z,7.82
2022-10-14T03:24:01.863Z,7.83
2022-10-14T03:25:10.375Z,7.84
2022-10-14T03:26:30.263Z,7.84
2022-10-14T03:27:33.423Z,7.86
2022-10-14T03:28:42.991Z,7.89
2022-10-14T03:29:53.398Z,7.90
2022-10-14T03:31:00.827Z,7.90
2022-10-14T03:32:23.680Z,7.93
2022-10-14T03:33:46.890Z,7.93
2022-10-14T03:34:54.987Z,7.96
2022-10-14T03:36:00.464Z,7.99
2022-10-14T03:37:18.492Z,7.99
2022-10-14T03:38:26.226Z,8.00
2022-10-14T03:39:30.796Z,7.99
2022-10-14T03:40:39.534Z,7.99
2022-10-14T03:41:50.446Z,7.99
2022-10-14T03:43:00.042Z,8.00
2022-10-14T03:44:09.936Z,8.00
2022-10-14T03:45:15.089Z,8.01
2022-10-14T03:46:19.165Z,8.01
2022-10-14T03:47:22.156Z,8.00
2022-10-14T03:48:26.117Z,7.98
2022-10-14T03:49:35.125Z,7.96
2022-10-14T03:50:48.770Z,7.96
2022-10-14T03:51:54.178Z,7.96
2022-10-14T03:53:01.806Z,7.98
2022-10-14T03:54:10.966Z,7.99
2022-10-14T03:55:15.186Z,8.00
2022-10-14T03:56:19.958Z,8.00
2022-10-14T03:57:24.257Z,7.99
2022-10-14T03:58:30.719Z,7.97
2022-10-14T03:59:39.586Z,7.97
2022-10-14T04:00:43.104Z,7.97
2022-10-14T04:01:59.741Z,7.96
2022-10-14T04:03:02.851Z,7.94
2022-10-14T04:04:14.794Z,7.90
2022-10-14T04:05:19.316Z,7.88
2022-10-14T04:06:25.816Z,7.86
2022-10-14T04:07:32.936Z,7.82
2022-10-14T04:08:37.323Z,7.80
2022-10-14T04:09:54.430Z,7.75
2022-10-14T04:10:58.914Z,7.72
2022-10-14T04:12:06.625Z,7.70
2022-10-14T04:13:27.536Z,7.67
2022-10-14T04:14:30.786Z,7.64
2022-10-14T04:15:37.366Z,7.63
2022-10-14T04:16:52.598Z,7.61
2022-10-14T04:17:56.543Z,7.59
2022-10-14T04:19:00.650Z,7.57
2022-10-14T04:20:04.016Z,7.56
2022-10-14T04:21:12.529Z,7.54
2022-10-14T04:22:19.722Z,7.48
2022-10-14T04:23:27.546Z,7.45
2022-10-14T04:24:37.064Z,7.44
2022-10-14T04:25:40.276Z,7.44
2022-10-14T04:26:45.134Z,7.43
2022-10-14T04:27:53.929Z,7.43
2022-10-14T04:29:00.521Z,7.42
2022-10-14T04:30:13.664Z,7.44
2022-10-14T04:31:24.617Z,7.44
2022-10-14T04:32:34.128Z,7.44
2022-10-14T04:33:37.486Z,7.45
2022-10-14T04:34:50.665Z,7.47
2022-10-14T04:35:59.639Z,7.47
2022-10-14T04:37:10.595Z,7.46
2022-10-14T04:38:23.473Z,7.45
2022-10-14T04:39:33.174Z,7.49
2022-10-14T04:40:36.284Z,7.52
2022-10-14T04:41:40.280Z,7.55
2022-10-14T04:42:43.426Z,7.57
2022-10-14T04:43:56.904Z,7.61
2022-10-14T04:45:16.453Z,7.63
2022-10-14T04:46:25.648Z,7.62
2022-10-14T04:47:29.996Z,7.62
2022-10-14T04:48:37.215Z,7.65
2022-10-14T04:49:42.168Z,7.66
2022-10-14T04:50:52.054Z,7.69
2022-10-14T04:52:10.978Z,7.70
2022-10-14T04:53:29.256Z,7.70
2022-10-14T04:55:03.558Z,7.70
2022-10-14T04:56:14.773Z,7.73
2022-10-14T04:57:28.030Z,7.74
2022-10-14T04:58:32.404Z,7.79
2022-10-14T04:59:35.449Z,7.82
2022-10-14T05:00:57.847Z,7.86
2022-10-14T05:02:11.059Z,7.88
2022-10-14T05:03:32.505Z,7.91
2022-10-14T05:04:35.815Z,7.94
2022-10-14T05:05:40.258Z,7.97
2022-10-14T05:06:43.187Z,7.99
2022-10-14T05:07:51.677Z,7.99
2022-10-14T05:09:09.117Z,7.97
2022-10-14T05:10:12.361Z,7.97
2022-10-14T05:11:19.316Z,7.96
2022-10-14T05:12:27.814Z,7.98
2022-10-14T05:13:36.487Z,7.97
2022-10-14T05:14:43.924Z,7.99
2022-10-14T05:15:54.566Z,8.01
2022-10-14T05:16:58.647Z,8.03
2022-10-14T05:18:06.806Z,8.03
2022-10-14T05:19:40.137Z,8.03
2022-10-14T05:20:43.444Z,8.04
2022-10-14T05:21:47.534Z,8.05
2022-10-14T05:22:57.456Z,8.09
2022-10-14T05:24:02.013Z,8.12
2022-10-14T05:25:09.256Z,8.16
2022-10-14T05:26:14.378Z,8.20
2022-10-14T05:27:18.643Z,8.24
2022-10-14T05:28:23.737Z,8.29
2022-10-14T05:29:28.015Z,8.34
2022-10-14T05:30:34.880Z,8.38
2022-10-14T05:31:42.344Z,8.42
2022-10-14T05:33:12.577Z,8.47
2022-10-14T05:34:17.586Z,8.50
2022-10-14T05:35:46.255Z,8.55
2022-10-14T05:36:46.612Z,8.58
2022-10-14T05:38:00.724Z,8.63
2022-10-14T05:39:10.364Z,8.66
2022-10-14T05:40:14.208Z,8.70
2022-10-14T05:41:18.293Z,8.73
2022-10-14T05:42:21.907Z,8.77
2022-10-14T05:43:32.689Z,8.83
2022-10-14T05:44:37.883Z,8.88
2022-10-14T05:45:42.016Z,8.95
2022-10-14T05:46:44.995Z,9.01
2022-10-14T05:47:49.146Z,9.06
2022-10-14T05:48:54.266Z,9.11
2022-10-14T05:49:58.917Z,9.17
2022-10-14T05:51:03.579Z,9.24
2022-10-14T05:52:10.446Z,9.31
2022-10-14T05:53:14.761Z,9.37
2022-10-14T05:54:22.517Z,9.43
2022-10-14T05:55:28.386Z,9.47
2022-10-14T05:56:35.672Z,9.52
2022-10-14T05:57:38.657Z,9.56
2022-10-14T05:58:43.187Z,9.61
2022-10-14T05:59:46.407Z,9.67
2022-10-14T06:00:51.767Z,9.72
2022-10-14T06:01:55.765Z,9.75
2022-10-14T06:03:01.964Z,9.79
2022-10-14T06:04:05.564Z,9.83
2022-10-14T06:05:09.907Z,9.88
2022-10-14T06:06:14.377Z,9.95
2022-10-14T06:07:19.325Z,9.99
2022-10-14T06:08:24.150Z,10.06
2022-10-14T06:09:28.357Z,10.10
2022-10-14T06:10:31.277Z,10.14
2022-10-14T06:11:36.554Z,10.20
2022-10-14T06:12:39.673Z,10.25
2022-10-14T06:13:43.718Z,10.29
2022-10-14T06:14:46.687Z,10.34
2022-10-14T06:15:51.096Z,10.40
2022-10-14T06:16:54.017Z,10.42
2022-10-14T06:17:58.201Z,10.46
2022-10-14T06:19:02.516Z,10.52
2022-10-14T06:20:07.173Z,10.57
2022-10-14T06:21:10.456Z,10.63
2022-10-14T06:22:14.407Z,10.69
2022-10-14T06:23:17.368Z,10.75
2022-10-14T06:24:22.924Z,10.79
2022-10-14T06:25:26.015Z,10.84
2022-10-14T06:26:29.946Z,10.88
2022-10-14T06:27:32.893Z,10.92
2022-10-14T06:28:37.057Z,10.98
2022-10-14T06:29:40.156Z,11.01
2022-10-14T06:30:44.163Z,11.02
2022-10-14T06:31:48.132Z,11.04
2022-10-14T06:32:53.946Z,11.06
2022-10-14T06:33:58.126Z,11.08
2022-10-14T06:35:01.033Z,11.11
2022-10-14T06:36:05.891Z,11.13
2022-10-14T06:37:09.854Z,11.16
2022-10-14T06:38:12.816Z,11.20
2022-10-14T06:39:16.966Z,11.23
2022-10-14T06:40:21.423Z,11.27
2022-10-14T06:41:26.117Z,11.31
2022-10-14T06:42:29.037Z,11.34
2022-10-14T06:43:36.508Z,11.38
2022-10-14T06:44:40.483Z,11.41
2022-10-14T06:45:43.337Z,11.46
2022-10-14T06:46:47.386Z,11.50
2022-10-14T06:47:50.435Z,11.53
2022-10-14T06:48:54.366Z,11.57
2022-10-14T06:49:58.387Z,11.61
2022-10-14T06:51:01.928Z,11.64
2022-10-14T06:52:06.323Z,11.69
2022-10-14T06:53:09.300Z,11.72
2022-10-14T06:54:13.226Z,11.77
2022-10-14T06:55:16.466Z,11.79
2022-10-14T06:56:21.783Z,11.81
2022-10-14T06:57:24.713Z,11.84
2022-10-14T06:58:28.707Z,11.88
2022-10-14T06:59:31.596Z,11.92
2022-10-14T07:00:35.652Z,11.96
2022-10-14T07:01:39.487Z,11.98
2022-10-14T07:02:44.467Z,12.01
2022-10-14T07:03:47.445Z,12.04
2022-10-14T07:04:51.423Z,12.08
2022-10-14T07:05:54.351Z,12.12
2022-10-14T07:06:59.027Z,12.16
2022-10-14T07:08:03.018Z,12.18
2022-10-14T07:09:06.034Z,12.20
2022-10-14T07:10:10.757Z,12.24
2022-10-14T07:11:14.036Z,12.29
2022-10-14T07:12:19.787Z,12.33
2022-10-14T07:13:22.847Z,12.40
2022-10-14T07:14:26.838Z,12.46
2022-10-14T07:15:33.836Z,12.52
2022-10-14T07:16:40.355Z,12.60
2022-10-14T07:17:43.364Z,12.66
2022-10-14T07:18:47.325Z,12.73
2022-10-14T07:19:50.321Z,12.81
2022-10-14T07:20:54.345Z,12.89
2022-10-14T07:21:57.241Z,12.96
2022-10-14T07:23:01.286Z,13.03
2022-10-14T07:24:04.566Z,13.11
2022-10-14T07:25:09.734Z,13.19
2022-10-14T07:26:13.673Z,13.26
2022-10-14T07:27:18.818Z,13.33
2022-10-14T07:28:23.091Z,13.40
2022-10-14T07:29:26.104Z,13.46
2022-10-14T07:30:30.246Z,13.54
2022-10-14T07:31:34.327Z,13.61
2022-10-14T07:32:37.456Z,13.67
2022-10-14T07:33:41.916Z,13.74
2022-10-14T07:34:45.917Z,13.78
2022-10-14T07:35:48.965Z,13.82
2022-10-14T07:36:52.966Z,13.86
2022-10-14T07:37:56.216Z,13.89
2022-10-14T07:39:01.315Z,13.92
2022-10-14T07:40:05.296Z,13.95
2022-10-14T07:41:17.104Z,13.99
2022-10-14T07:42:22.592Z,14.04
2022-10-14T07:43:25.524Z,14.12
2022-10-14T07:44:29.548Z,14.17
2022-10-14T07:45:36.094Z,14.23
2022-10-14T07:46:42.957Z,14.25
2022-10-14T07:47:49.648Z,14.27
2022-10-14T07:48:57.158Z,14.28
2022-10-14T07:50:02.010Z,14.32
2022-10-14T07:51:05.720Z,14.40
2022-10-14T07:52:09.744Z,14.48
2022-10-14T07:53:12.646Z,14.59
2022-10-14T07:54:18.577Z,14.68
2022-10-14T07:55:21.581Z,14.73
2022-10-14T07:56:25.727Z,14.78
2022-10-14T07:57:31.117Z,14.83
2022-10-14T07:58:34.246Z,14.91
2022-10-14T07:59:38.204Z,14.96
2022-10-14T08:00:41.135Z,15.00
2022-10-14T08:01:45.202Z,15.03
2022-10-14T08:02:48.169Z,15.05
2022-10-14T08:03:52.246Z,15.08
2022-10-14T08:05:13.120Z,15.13
2022-10-14T08:06:21.242Z,15.22
2022-10-14T08:07:25.598Z,15.25
2022-10-14T08:08:30.706Z,15.28
2022-10-14T08:09:36.184Z,15.32
2022-10-14T08:10:40.973Z,15.35
2022-10-14T08:11:45.914Z,15.41
2022-10-14T08:12:51.315Z,15.51
2022-10-14T08:13:55.650Z,15.57
2022-10-14T08:14:58.551Z,15.63
2022-10-14T08:16:02.516Z,15.67
2022-10-14T08:17:06.634Z,15.71
2022-10-14T08:18:11.162Z,15.76
2022-10-14T08:19:15.316Z,15.80
2022-10-14T08:20:18.514Z,15.83
2022-10-14T08:21:22.887Z,15.87
2022-10-14T08:22:27.362Z,15.93
2022-10-14T08:23:30.884Z,15.98
2022-10-14T08:24:34.876Z,16.02
2022-10-14T08:25:38.386Z,16.05
2022-10-14T08:26:44.358Z,16.08
2022-10-14T08:27:51.464Z,16.10
2022-10-14T08:28:55.468Z,16.09
2022-10-14T08:29:58.507Z,16.09
2022-10-14T08:31:02.528Z,16.14
2022-10-14T08:32:06.773Z,16.15
2022-10-14T08:33:09.838Z,16.16
2022-10-14T08:34:13.861Z,16.20
2022-10-14T08:35:16.879Z,16.25
2022-10-14T08:36:21.476Z,16.31
2022-10-14T08:37:25.484Z,16.33
2022-10-14T08:38:29.287Z,16.33
2022-10-14T08:39:33.304Z,16.33
2022-10-14T08:40:53.370Z,16.30
2022-10-14T08:42:22.196Z,16.24
2022-10-14T08:43:32.085Z,16.23
2022-10-14T08:44:41.467Z,16.25
2022-10-14T08:45:49.131Z,16.26
2022-10-14T08:46:54.074Z,16.28
2022-10-14T08:47:58.626Z,16.30
2022-10-14T08:49:04.886Z,16.29
2022-10-14T08:50:20.026Z,16.30
2022-10-14T08:51:23.266Z,16.33
2022-10-14T08:52:34.942Z,16.38
2022-10-14T08:53:44.785Z,16.49
2022-10-14T08:54:50.477Z,16.59
2022-10-14T08:55:56.436Z,16.78
2022-10-14T08:56:59.755Z,16.98
2022-10-14T08:58:11.332Z,17.13
2022-10-14T08:59:17.572Z,17.25
2022-10-14T09:00:22.167Z,17.33
2022-10-14T09:01:29.128Z,17.40
2022-10-14T09:02:39.673Z,17.47
2022-10-14T09:03:42.979Z,17.50
2022-10-14T09:04:47.045Z,17.55
2022-10-14T09:05:58.001Z,17.58
2022-10-14T09:07:02.038Z,17.63
2022-10-14T09:08:08.369Z,17.64
2022-10-14T09:09:17.924Z,17.63
2022-10-14T09:10:28.640Z,17.57
2022-10-14T09:11:34.398Z,17.52
2022-10-14T09:12:42.833Z,17.45
2022-10-14T09:13:47.923Z,17.43
2022-10-14T09:15:02.397Z,17.43
2022-10-14T09:16:08.898Z,17.44
2022-10-14T09:17:17.457Z,17.48
2022-10-14T09:18:30.788Z,17.53
2022-10-14T09:19:37.476Z,17.55
2022-10-14T09:20:41.102Z,17.60
2022-10-14T09:21:52.670Z,17.62
2022-10-14T09:23:02.727Z,17.66
2022-10-14T09:24:18.411Z,17.70
2022-10-14T09:25:21.466Z,17.72
2022-10-14T09:26:25.928Z,17.79
2022-10-14T09:27:31.918Z,17.84
2022-10-14T09:28:38.627Z,17.88
2022-10-14T09:29:45.314Z,17.95
2022-10-14T09:30:49.876Z,18.04
2022-10-14T09:31:54.527Z,18.11
2022-10-14T09:33:00.111Z,18.17
2022-10-14T09:34:03.013Z,18.20
2022-10-14T09:35:14.982Z,18.19
2022-10-14T09:36:20.905Z,18.11
2022-10-14T09:37:26.558Z,18.07
2022-10-14T09:38:30.657Z,18.05
2022-10-14T09:39:35.755Z,18.03
2022-10-14T09:40:43.004Z,18.03
2022-10-14T09:41:48.486Z,18.05
2022-10-14T09:42:58.640Z,18.03
2022-10-14T09:44:18.719Z,17.96
2022-10-14T09:45:24.943Z,17.88
2022-10-14T09:46:29.463Z,17.85
2022-10-14T09:47:37.736Z,17.84
2022-10-14T09:48:45.437Z,17.84
2022-10-14T09:49:49.067Z,17.81
2022-10-14T09:50:55.084Z,17.75
2022-10-14T09:51:59.067Z,17.67
2022-10-14T09:53:06.967Z,17.64
2022-10-14T09:54:23.926Z,17.61
2022-10-14T09:55:26.853Z,17.55
2022-10-14T09:56:32.613Z,17.51
2022-10-14T09:57:36.705Z,17.47
2022-10-14T09:58:44.636Z,17.42
2022-10-14T09:59:51.526Z,17.39
2022-10-14T10:00:58.314Z,17.41
2022-10-14T10:02:05.614Z,17.50
2022-10-14T10:03:09.905Z,17.62
2022-10-14T10:04:28.943Z,17.78
2022-10-14T10:05:33.457Z,17.86
2022-10-14T10:06:53.184Z,17.89
2022-10-14T10:08:11.324Z,17.89
2022-10-14T10:09:19.048Z,17.83
2022-10-14T10:10:23.703Z,17.74
2022-10-14T10:11:33.588Z,17.66
2022-10-14T10:12:36.614Z,17.57
2022-10-14T10:13:45.053Z,17.50
2022-10-14T10:14:56.785Z,17.47
2022-10-14T10:16:01.821Z,17.44
2022-10-14T10:17:17.896Z,17.47
2022-10-14T10:18:22.494Z,17.49
2022-10-14T10:19:28.776Z,17.52
2022-10-14T10:20:33.597Z,17.57
2022-10-14T10:21:37.070Z,17.63
2022-10-14T10:22:42.054Z,17.74
2022-10-14T10:23:52.991Z,17.89
2022-10-14T10:25:19.356Z,17.98
2022-10-14T10:26:26.804Z,18.06
2022-10-14T10:27:35.415Z,18.11
2022-10-14T10:28:45.634Z,18.14
2022-10-14T10:29:49.837Z,18.14
2022-10-14T10:31:02.686Z,18.15
2022-10-14T10:32:13.898Z,18.13
2022-10-14T10:33:22.704Z,18.16
2022-10-14T10:34:56.766Z,18.22
2022-10-14T10:36:15.539Z,18.26
2022-10-14T10:37:25.543Z,18.27
2022-10-14T10:38:34.893Z,18.29
2022-10-14T10:39:44.041Z,18.32
2022-10-14T10:40:58.694Z,18.31
2022-10-14T10:42:09.276Z,18.32
2022-10-14T10:43:32.549Z,18.32
2022-10-14T10:44:50.571Z,18.31
2022-10-14T10:46:04.980Z,18.31
2022-10-14T10:47:20.823Z,18.32
2022-10-14T10:48:29.323Z,18.34
2022-10-14T10:49:47.387Z,18.39
2022-10-14T10:50:57.845Z,18.46
2022-10-14T10:52:08.839Z,18.53
2022-10-14T10:53:45.259Z,18.55
2022-10-14T10:54:54.176Z,18.53
2022-10-14T10:56:08.974Z,18.56
2022-10-14T10:57:30.446Z,18.60
2022-10-14T10:58:44.441Z,18.60
2022-10-14T10:59:56.421Z,18.55
2022-10-14T11:01:02.119Z,18.47
2022-10-14T11:02:26.290Z,18.40
2022-10-14T11:03:44.510Z,18.35
2022-10-14T11:04:51.548Z,18.35
2022-10-14T11:05:59.619Z,18.33
2022-10-14T11:07:35.377Z,18.36
2022-10-14T11:09:12.053Z,18.41
2022-10-14T11:10:39.229Z,18.36
2022-10-14T11:12:06.710Z,18.27
2022-10-14T11:13:21.584Z,18.22
2022-10-14T11:14:34.184Z,18.20
2022-10-14T11:15:46.324Z,18.18
2022-10-14T11:16:53.573Z,18.12
2022-10-14T11:18:03.119Z,18.06
2022-10-14T11:19:14.622Z,18.05
2022-10-14T11:20:27.909Z,18.10
2022-10-14T11:21:39.366Z,18.15
2022-10-14T11:22:55.947Z,18.25
2022-10-14T11:24:07.988Z,18.32
2022-10-14T11:25:22.963Z,18.31
2022-10-14T11:26:48.143Z,18.30
2022-10-14T11:27:55.566Z,18.31
2022-10-14T11:29:04.658Z,18.37
2022-10-14T11:30:19.609Z,18.42
2022-10-14T11:31:32.380Z,18.48
2022-10-14T11:32:44.738Z,18.55
2022-10-14T11:34:04.056Z,18.68
2022-10-14T11:35:19.358Z,18.80
2022-10-14T11:36:31.728Z,18.90
2022-10-14T11:37:45.722Z,19.02
2022-10-14T11:39:00.417Z,19.09
2022-10-14T11:40:09.374Z,19.12
2022-10-14T11:41:21.561Z,19.14
2022-10-14T11:42:29.849Z,19.15
2022-10-14T11:43:42.159Z,19.09
2022-10-14T11:44:45.136Z,19.04
2022-10-14T11:45:54.658Z,19.04
2022-10-14T11:47:04.733Z,19.05
2022-10-14T11:48:16.877Z,19.08
2022-10-14T11:49:27.337Z,19.13
2022-10-14T11:50:34.675Z,19.18
2022-10-14T11:51:42.229Z,19.26
2022-10-14T11:52:49.278Z,19.33
2022-10-14T11:54:02.558Z,19.40
2022-10-14T11:55:09.810Z,19.46
2022-10-14T11:56:30.085Z,19.55
2022-10-14T11:57:36.855Z,19.62
2022-10-14T11:58:40.877Z,19.71
2022-10-14T12:00:03.296Z,19.76
2022-10-14T12:01:16.478Z,19.72
2022-10-14T12:02:27.110Z,19.65
2022-10-14T12:03:44.778Z,19.52
2022-10-14T12:04:55.623Z,19.38
2022-10-14T12:06:04.491Z,19.38
2022-10-14T12:07:12.758Z,19.45
2022-10-14T12:08:22.817Z,19.45
2022-10-14T12:09:32.571Z,19.46
2022-10-14T12:10:40.183Z,19.49
2022-10-14T12:11:46.220Z,19.53
2022-10-14T12:12:51.363Z,19.55
2022-10-14T12:13:59.369Z,19.57
2022-10-14T12:15:06.834Z,19.66
2022-10-14T12:16:15.105Z,19.73
2022-10-14T12:17:21.680Z,19.74
2022-10-14T12:18:25.945Z,19.70
2022-10-14T12:19:29.959Z,19.65
2022-10-14T12:20:40.020Z,19.56
2022-10-14T12:21:55.097Z,19.46
2022-10-14T12:23:02.638Z,19.38
2022-10-14T12:24:09.484Z,19.31
2022-10-14T12:25:17.608Z,19.25
2022-10-14T12:26:40.330Z,19.23
2022-10-14T12:27:44.469Z,19.21
2022-10-14T12:28:48.914Z,19.24
2022-10-14T12:29:55.880Z,19.30
2022-10-14T12:31:26.057Z,19.38
2022-10-14T12:32:31.459Z,19.35
2022-10-14T12:34:14.854Z,19.43
2022-10-14T12:36:03.630Z,19.56
2022-10-14T12:37:43.395Z,19.61
2022-10-14T12:39:28.181Z,19.72
2022-10-14T12:40:32.808Z,19.90
2022-10-14T12:41:43.886Z,20.14
2022-10-14T12:43:07.439Z,20.44
2022-10-14T12:44:15.521Z,20.58
2022-10-14T12:45:21.742Z,20.59
2022-10-14T12:46:25.955Z,20.54
2022-10-14T12:47:32.376Z,20.56
2022-10-14T12:48:37.427Z,20.60
2022-10-14T12:49:40.456Z,20.69
2022-10-14T12:50:49.869Z,20.75
2022-10-14T12:51:55.829Z,20.80
2022-10-14T12:53:06.986Z,20.80
2022-10-14T12:54:16.544Z,20.68
2022-10-14T12:55:24.712Z,20.50
2022-10-14T12:56:32.206Z,20.28
2022-10-14T12:57:40.226Z,20.05
2022-10-14T12:59:02.653Z,19.76
2022-10-14T13:00:29.105Z,19.66
2022-10-14T13:01:42.668Z,19.72
2022-10-14T13:02:51.890Z,19.73
2022-10-14T13:04:05.298Z,19.74
2022-10-14T13:05:29.050Z,19.86
2022-10-14T13:06:52.858Z,20.03
2022-10-14T13:08:12.635Z,20.26
2022-10-14T13:09:41.125Z,20.30
2022-10-14T13:10:47.501Z,20.23
2022-10-14T13:12:37.617Z,20.12
2022-10-14T13:13:52.915Z,19.76
2022-10-14T13:14:59.507Z,19.55
2022-10-14T13:16:03.867Z,19.39
2022-10-14T13:17:36.194Z,19.23
2022-10-14T13:19:01.026Z,19.01
2022-10-14T13:20:48.242Z,18.87
2022-10-14T13:21:58.581Z,18.69
2022-10-14T13:23:24.095Z,18.56
2022-10-14T13:24:29.746Z,18.52
2022-10-14T13:25:37.940Z,18.62
2022-10-14T13:26:52.446Z,18.83
2022-10-14T13:28:17.463Z,19.17
2022-10-14T13:29:31.586Z,19.51
2022-10-14T13:30:47.235Z,19.81
2022-10-14T13:31:57.956Z,19.88
2022-10-14T13:33:13.484Z,19.85
2022-10-14T13:34:34.579Z,19.88
2022-10-14T13:35:50.569Z,19.94
2022-10-14T13:37:09.060Z,20.03
2022-10-14T13:38:15.478Z,20.18
2022-10-14T13:39:20.391Z,20.35
2022-10-14T13:40:30.359Z,20.53
2022-10-14T13:41:34.875Z,20.64
2022-10-14T13:42:39.517Z,20.72
2022-10-14T13:43:45.017Z,20.74
2022-10-14T13:44:52.781Z,20.74
2022-10-14T13:46:08.108Z,20.72
2022-10-14T13:47:15.906Z,20.64
2022-10-14T13:48:43.348Z,20.51
2022-10-14T13:49:51.761Z,20.37
2022-10-14T13:51:37.086Z,20.30
2022-10-14T13:52:48.806Z,20.32
2022-10-14T13:53:54.845Z,20.37
2022-10-14T13:55:18.965Z,20.37
2022-10-14T13:56:25.996Z,20.33
2022-10-14T13:57:53.967Z,20.33
2022-10-14T13:58:56.404Z,20.32
2022-10-14T14:01:27.975Z,20.32
2022-10-14T14:02:34.258Z,20.23
2022-10-14T14:03:43.686Z,20.18
2022-10-14T14:04:53.655Z,20.12
2022-10-14T14:05:57.214Z,20.14
2022-10-14T14:07:18.681Z,20.16
2022-10-14T14:08:39.799Z,20.21
2022-10-14T14:09:49.537Z,20.27
2022-10-14T14:11:15.787Z,20.28
2022-10-14T14:12:20.758Z,20.20
2022-10-14T14:13:24.395Z,20.17
2022-10-14T14:14:35.076Z,20.20
2022-10-14T14:15:39.088Z,20.18
2022-10-14T14:16:52.561Z,20.16
2022-10-14T14:18:19.426Z,20.15
2022-10-14T14:19:41.727Z,20.12
2022-10-14T14:21:04.530Z,20.11
2022-10-14T14:22:14.149Z,20.11
2022-10-14T14:23:18.392Z,20.13
2022-10-14T14:24:29.660Z,20.15
2022-10-14T14:25:35.449Z,20.11
2022-10-14T14:26:47.216Z,20.04
2022-10-14T14:27:53.557Z,20.02
2022-10-14T14:28:58.765Z,20.00
2022-10-14T14:30:25.318Z,19.96
2022-10-14T14:32:05.151Z,19.88
2022-10-14T14:33:04.941Z,19.88
2022-10-14T14:34:11.774Z,19.88
2022-10-14T14:35:42.784Z,19.91
2022-10-14T14:37:10.948Z,19.86
2022-10-14T14:38:26.285Z,19.78
2022-10-14T14:39:32.038Z,19.80
2022-10-14T14:40:36.104Z,19.79
2022-10-14T14:41:39.139Z,19.80
2022-10-14T14:42:43.587Z,19.73
2022-10-14T14:44:13.757Z,19.60
2022-10-14T14:45:25.818Z,19.34
2022-10-14T14:46:32.867Z,19.17
2022-10-14T14:47:42.126Z,19.02
2022-10-14T14:48:53.441Z,18.88
2022-10-14T14:50:29.946Z,18.73
2022-10-14T14:51:58.014Z,18.51
2022-10-14T14:53:20.552Z,18.33
2022-10-14T14:54:25.227Z,18.19
2022-10-14T14:56:10.566Z,18.05
2022-10-14T14:57:20.367Z,17.88
2022-10-14T14:58:27.355Z,17.81
2022-10-14T14:59:35.681Z,17.70
2022-10-14T15:00:44.673Z,17.62
2022-10-14T15:01:49.076Z,17.57